createdAt,value
2018-07-17T00:02:22.768Z,21.34
2018-07-17T00:04:51.311Z,21.30
2018-07-17T00:07:19.896Z,21.42
2018-07-17T00:09:48.682Z,21.32
2018-07-17T00:12:17.265Z,21.08
2018-07-17T00:14:45.831Z,21.06
2018-07-17T00:17:14.370Z,21.17
2018-07-17T00:19:43.304Z,20.96
2018-07-17T00:22:11.852Z,20.86
2018-07-17T00:24:40.473Z,20.80
2018-07-17T00:27:09.329Z,20.98
2018-07-17T00:29:37.903Z,20.90
2018-07-17T00:32:06.523Z,20.69
2018-07-17T00:34:35.073Z,20.58
2018-07-17T00:37:03.739Z,20.47
2018-07-17T00:39:32.293Z,20.39
2018-07-17T00:42:00.845Z,20.48
2018-07-17T00:44:29.602Z,20.32
2018-07-17T00:46:58.195Z,20.37
2018-07-17T00:49:26.760Z,20.34
2018-07-17T00:51:55.332Z,20.17
2018-07-17T00:54:23.888Z,20.19
2018-07-17T00:56:52.471Z,20.39
2018-07-17T00:59:21.889Z,20.26
2018-07-17T01:01:55.751Z,20.19
2018-07-17T01:04:29.576Z,20.20
2018-07-17T01:07:03.466Z,20.23
2018-07-17T01:09:37.110Z,20.14
2018-07-17T01:12:11.248Z,19.92
2018-07-17T01:14:52.180Z,20.03
2018-07-17T01:17:21.259Z,20.12
2018-07-17T01:19:49.801Z,20.14
2018-07-17T01:22:18.348Z,20.12
2018-07-17T01:24:46.922Z,20.03
2018-07-17T01:27:15.436Z,19.92
2018-07-17T01:29:44.069Z,19.81
2018-07-17T01:32:12.621Z,19.92
2018-07-17T01:34:41.158Z,19.73
2018-07-17T01:37:09.727Z,19.92
2018-07-17T01:39:38.283Z,19.89
2018-07-17T01:42:07.440Z,19.85
2018-07-17T01:44:35.971Z,19.74
2018-07-17T01:47:04.500Z,19.82
2018-07-17T01:49:33.211Z,19.82
2018-07-17T01:52:01.772Z,20.00
2018-07-17T01:54:30.431Z,19.96
2018-07-17T01:56:58.969Z,19.92
2018-07-17T01:59:27.488Z,19.86
2018-07-17T02:01:56.034Z,19.76
2018-07-17T02:04:24.563Z,19.72
2018-07-17T02:06:53.115Z,19.68
2018-07-17T02:09:21.639Z,19.61
2018-07-17T02:11:50.187Z,19.33
2018-07-17T02:14:18.822Z,19.34
2018-07-17T02:16:47.327Z,18.71
2018-07-17T02:19:16.031Z,17.98
2018-07-17T02:21:44.559Z,17.79
2018-07-17T02:24:13.088Z,17.69
2018-07-17T02:26:41.699Z,17.69
2018-07-17T02:29:10.221Z,17.62
2018-07-17T02:31:39.104Z,17.74
2018-07-17T02:34:07.687Z,17.69
2018-07-17T02:36:36.236Z,17.60
2018-07-17T02:39:05.912Z,17.68
2018-07-17T02:41:34.454Z,17.66
2018-07-17T02:44:03.140Z,17.85
2018-07-17T02:46:31.900Z,17.69
2018-07-17T02:49:00.440Z,17.81
2018-07-17T02:51:29.024Z,17.65
2018-07-17T02:53:57.644Z,17.85
2018-07-17T02:56:26.248Z,17.78
2018-07-17T02:58:54.786Z,17.59
2018-07-17T03:01:23.340Z,17.62
2018-07-17T03:03:51.991Z,17.59
2018-07-17T03:06:20.504Z,17.52
2018-07-17T03:08:49.071Z,17.57
2018-07-17T03:11:17.748Z,17.49
2018-07-17T03:13:46.327Z,17.38
2018-07-17T03:16:14.876Z,17.22
2018-07-17T03:18:43.679Z,17.12
2018-07-17T03:21:12.238Z,17.22
2018-07-17T03:23:40.884Z,17.06
2018-07-17T03:26:09.463Z,17.12
2018-07-17T03:28:38.618Z,17.16
2018-07-17T03:31:07.197Z,16.81
2018-07-17T03:33:35.755Z,16.85
2018-07-17T03:36:04.287Z,16.96
2018-07-17T03:38:32.836Z,17.23
2018-07-17T03:41:01.428Z,17.33
2018-07-17T03:43:30.005Z,17.35
2018-07-17T03:45:59.191Z,17.26
2018-07-17T03:48:27.767Z,17.35
2018-07-17T03:50:56.363Z,17.46
2018-07-17T03:53:24.937Z,17.45
2018-07-17T03:55:53.479Z,17.51
2018-07-17T03:58:22.283Z,17.41
2018-07-17T04:00:50.828Z,17.29
2018-07-17T04:03:19.356Z,17.36
2018-07-17T04:05:48.000Z,17.43
2018-07-17T04:08:16.520Z,17.47
2018-07-17T04:10:45.277Z,17.60
2018-07-17T04:13:13.814Z,17.60
2018-07-17T04:15:42.364Z,17.66
2018-07-17T04:18:10.967Z,17.69
2018-07-17T04:20:39.496Z,17.54
2018-07-17T04:23:08.201Z,17.53
2018-07-17T04:25:36.760Z,17.56
2018-07-17T04:28:05.304Z,17.66
2018-07-17T04:30:33.888Z,17.72
2018-07-17T04:33:02.486Z,17.66
2018-07-17T04:35:31.416Z,17.96
2018-07-17T04:37:59.942Z,17.91
2018-07-17T04:40:28.479Z,18.19
2018-07-17T04:42:57.052Z,18.04
2018-07-17T04:45:25.609Z,18.20
2018-07-17T04:47:54.163Z,18.29
2018-07-17T04:50:22.750Z,18.36
2018-07-17T04:52:51.459Z,18.38
2018-07-17T04:55:19.995Z,18.41
2018-07-17T04:57:48.563Z,18.31
2018-07-17T05:00:17.388Z,18.43
2018-07-17T05:02:45.935Z,18.63
2018-07-17T05:05:14.452Z,18.65
2018-07-17T05:07:43.027Z,18.82
2018-07-17T05:10:11.673Z,18.77
2018-07-17T05:12:40.260Z,18.91
2018-07-17T05:15:08.855Z,19.00
2018-07-17T05:17:37.396Z,19.02
2018-07-17T05:20:06.073Z,19.10
2018-07-17T05:22:34.715Z,19.26
2018-07-17T05:25:03.417Z,19.32
2018-07-17T05:27:31.952Z,19.35
2018-07-17T05:30:00.867Z,19.56
2018-07-17T05:32:29.436Z,19.60
2018-07-17T05:34:57.966Z,19.49
2018-07-17T05:37:26.531Z,19.68
2018-07-17T05:39:55.074Z,19.79
2018-07-17T05:42:23.897Z,19.97
2018-07-17T05:44:52.479Z,20.01
2018-07-17T05:47:21.043Z,20.22
2018-07-17T05:49:49.648Z,20.27
2018-07-17T05:52:18.312Z,20.07
2018-07-17T05:54:46.900Z,20.34
2018-07-17T05:57:15.596Z,20.26
2018-07-17T05:59:44.135Z,20.45
2018-07-17T06:02:13.153Z,20.56
2018-07-17T06:04:42.339Z,20.81
2018-07-17T06:07:10.895Z,20.78
2018-07-17T06:09:39.456Z,20.99
2018-07-17T06:12:07.994Z,21.02
2018-07-17T06:14:36.563Z,20.97
2018-07-17T06:17:05.131Z,21.02
2018-07-17T06:19:33.667Z,21.19
2018-07-17T06:22:02.391Z,21.66
2018-07-17T06:24:30.891Z,21.65
2018-07-17T06:26:59.636Z,22.17
2018-07-17T06:29:28.286Z,22.37
2018-07-17T06:31:56.836Z,22.93
2018-07-17T06:34:25.389Z,23.01
2018-07-17T06:36:53.958Z,23.19
2018-07-17T06:39:22.591Z,23.52
2018-07-17T06:41:51.117Z,23.67
2018-07-17T06:44:19.643Z,24.19
2018-07-17T06:46:48.209Z,24.37
2018-07-17T06:49:16.743Z,24.51
2018-07-17T06:51:45.340Z,24.76
2018-07-17T06:54:13.901Z,25.49
2018-07-17T06:56:42.427Z,25.74
2018-07-17T06:59:11.252Z,25.72
2018-07-17T07:01:40.482Z,25.98
2018-07-17T07:04:09.027Z,26.57
2018-07-17T07:06:37.849Z,27.77
2018-07-17T07:09:07.948Z,28.23
2018-07-17T07:11:36.663Z,28.72
2018-07-17T07:14:05.344Z,29.26
2018-07-17T07:16:34.048Z,29.38
2018-07-17T07:19:02.676Z,30.04
2018-07-17T07:21:31.282Z,30.39
2018-07-17T07:23:59.856Z,30.92
2018-07-17T07:26:28.420Z,30.67
2018-07-17T07:28:57.111Z,30.90
2018-07-17T07:31:25.623Z,30.97
2018-07-17T07:33:54.299Z,31.03
2018-07-17T07:36:22.967Z,31.36
2018-07-17T07:38:51.489Z,32.07
2018-07-17T07:41:20.172Z,31.32
2018-07-17T07:43:48.707Z,30.01
2018-07-17T07:46:17.260Z,30.14
2018-07-17T07:48:45.832Z,29.96
2018-07-17T07:51:14.407Z,30.13
2018-07-17T07:53:43.325Z,30.49
2018-07-17T07:56:11.848Z,30.63
2018-07-17T07:58:40.451Z,31.42
2018-07-17T08:01:09.341Z,31.97
2018-07-17T08:03:37.931Z,32.25
2018-07-17T08:06:06.644Z,33.00
2018-07-17T08:08:35.203Z,33.88
2018-07-17T08:11:04.175Z,34.12
2018-07-17T08:13:32.935Z,34.64
2018-07-17T08:16:02.089Z,34.56
2018-07-17T08:18:30.599Z,34.69
2018-07-17T08:20:59.172Z,34.68
2018-07-17T08:23:27.936Z,35.07
2018-07-17T08:25:56.520Z,35.32
2018-07-17T08:28:25.060Z,35.58
2018-07-17T08:30:53.604Z,35.21
2018-07-17T08:33:22.144Z,35.27
2018-07-17T08:35:51.018Z,35.41
2018-07-17T08:38:19.549Z,35.54
2018-07-17T08:41:07.744Z,35.66
2018-07-17T08:43:36.647Z,36.13
2018-07-17T08:46:05.243Z,35.79
2018-07-17T08:48:33.867Z,35.87
2018-07-17T08:51:02.471Z,35.86
2018-07-17T08:53:31.144Z,35.94
2018-07-17T08:55:59.668Z,35.79
2018-07-17T08:58:28.231Z,36.08
2018-07-17T09:00:56.840Z,36.79
2018-07-17T09:03:25.866Z,37.14
2018-07-17T09:05:54.728Z,37.51
2018-07-17T09:08:23.274Z,37.90
2018-07-17T09:10:51.799Z,38.33
2018-07-17T09:13:20.379Z,38.35
2018-07-17T09:15:48.907Z,38.28
2018-07-17T09:18:17.610Z,38.53
2018-07-17T09:20:46.151Z,38.94
2018-07-17T09:23:14.694Z,39.56
2018-07-17T09:25:43.444Z,39.11
2018-07-17T09:28:12.084Z,39.72
2018-07-17T09:30:45.891Z,40.61
2018-07-17T09:33:14.416Z,40.34
2018-07-17T09:35:43.447Z,40.19
2018-07-17T09:38:12.239Z,40.82
2018-07-17T09:40:40.755Z,41.19
2018-07-17T09:43:10.314Z,41.06
2018-07-17T09:45:38.820Z,39.99
2018-07-17T09:48:07.319Z,40.47
2018-07-17T09:50:35.899Z,39.90
2018-07-17T09:53:04.445Z,40.69
2018-07-17T09:55:33.017Z,41.17
2018-07-17T09:58:01.731Z,41.88
2018-07-17T10:00:34.543Z,42.17
2018-07-17T10:03:03.705Z,41.99
2018-07-17T10:05:32.380Z,42.26
2018-07-17T10:08:00.950Z,42.90
2018-07-17T10:10:29.651Z,43.81
2018-07-17T10:12:58.328Z,45.73
2018-07-17T10:15:26.891Z,46.57
2018-07-17T10:17:55.425Z,44.37
2018-07-17T10:20:24.071Z,42.34
2018-07-17T10:22:52.766Z,41.98
2018-07-17T10:25:21.339Z,40.65
2018-07-17T10:27:49.868Z,40.24
2018-07-17T10:30:18.399Z,41.66
2018-07-17T10:32:46.983Z,42.54
2018-07-17T10:35:15.588Z,43.62
2018-07-17T10:37:44.373Z,43.58
2018-07-17T10:40:13.063Z,43.92
2018-07-17T10:42:41.728Z,43.43
2018-07-17T10:45:10.429Z,43.83
2018-07-17T10:47:39.127Z,46.03
2018-07-17T10:50:07.600Z,45.60
2018-07-17T10:52:36.156Z,46.25
2018-07-17T10:55:05.005Z,46.57
2018-07-17T10:57:33.701Z,47.24
2018-07-17T11:00:02.244Z,46.73
2018-07-17T11:02:31.135Z,46.50
2018-07-17T11:04:59.643Z,46.50
2018-07-17T11:07:28.151Z,46.06
2018-07-17T11:09:56.700Z,45.84
2018-07-17T11:12:25.468Z,44.23
2018-07-17T11:14:54.023Z,44.23
2018-07-17T11:17:22.667Z,45.40
2018-07-17T11:19:51.443Z,46.21
2018-07-17T11:22:19.994Z,47.60
2018-07-17T11:24:48.775Z,47.88
2018-07-17T11:27:17.583Z,47.58
2018-07-17T11:29:46.116Z,45.77
2018-07-17T11:32:14.651Z,45.53
2018-07-17T11:34:43.227Z,46.94
2018-07-17T11:37:11.764Z,47.48
2018-07-17T11:39:40.441Z,47.08
2018-07-17T11:42:09.252Z,46.96
2018-07-17T11:44:37.762Z,46.87
2018-07-17T11:47:06.309Z,47.13
2018-07-17T11:49:34.827Z,44.51
2018-07-17T11:52:03.583Z,43.93
2018-07-17T11:54:32.233Z,44.72
2018-07-17T11:57:00.752Z,43.79
2018-07-17T11:59:29.499Z,40.54
2018-07-17T12:01:57.872Z,39.59
2018-07-17T12:04:26.531Z,38.90
2018-07-17T12:06:55.436Z,37.79
2018-07-17T12:09:23.996Z,36.33
2018-07-17T12:11:52.603Z,39.16
2018-07-17T12:14:21.128Z,42.28
2018-07-17T12:16:49.734Z,44.31
2018-07-17T12:19:18.260Z,42.55
2018-07-17T12:21:46.774Z,40.42
2018-07-17T12:24:15.336Z,38.95
2018-07-17T12:26:43.877Z,37.95
2018-07-17T12:29:12.525Z,40.55
2018-07-17T12:31:41.087Z,42.81
2018-07-17T12:34:10.484Z,42.55
2018-07-17T12:36:39.051Z,41.53
2018-07-17T12:39:09.324Z,41.48
2018-07-17T12:41:38.105Z,40.81
2018-07-17T12:44:06.743Z,39.12
2018-07-17T12:46:35.319Z,37.90
2018-07-17T12:49:03.911Z,36.74
2018-07-17T12:51:32.495Z,37.39
2018-07-17T12:54:02.396Z,37.80
2018-07-17T12:56:30.989Z,38.02
2018-07-17T12:58:59.642Z,37.29
2018-07-17T13:01:28.213Z,36.24
2018-07-17T13:03:56.748Z,35.64
2018-07-17T13:06:25.388Z,35.95
2018-07-17T13:08:53.963Z,38.64
2018-07-17T13:11:22.499Z,40.11
2018-07-17T13:13:51.076Z,42.33
2018-07-17T13:16:19.640Z,41.29
2018-07-17T13:18:48.348Z,39.43
2018-07-17T13:21:16.893Z,40.18
2018-07-17T13:23:45.451Z,40.18
2018-07-17T13:26:13.991Z,40.75
2018-07-17T13:28:42.544Z,41.00
2018-07-17T13:31:11.175Z,41.08
2018-07-17T13:33:39.779Z,41.09
2018-07-17T13:36:08.343Z,39.95
2018-07-17T13:38:36.897Z,39.24
2018-07-17T13:41:05.463Z,37.96
2018-07-17T13:43:34.559Z,38.59
2018-07-17T13:46:03.204Z,37.07
2018-07-17T13:48:31.760Z,36.23
2018-07-17T13:51:00.352Z,35.23
2018-07-17T13:53:28.940Z,34.39
2018-07-17T13:55:58.177Z,33.76
2018-07-17T13:58:26.841Z,32.98
2018-07-17T14:00:56.373Z,32.48
2018-07-17T14:03:25.266Z,32.51
2018-07-17T14:05:53.810Z,32.40
2018-07-17T14:08:22.767Z,32.38
2018-07-17T14:10:51.620Z,34.06
2018-07-17T14:13:20.580Z,34.67
2018-07-17T14:15:49.731Z,34.20
2018-07-17T14:18:18.801Z,33.53
2018-07-17T14:20:47.864Z,32.76
2018-07-17T14:23:16.471Z,31.98
2018-07-17T14:25:45.045Z,31.58
2018-07-17T14:28:13.883Z,31.27
2018-07-17T14:30:42.881Z,31.27
2018-07-17T14:33:12.202Z,32.91
2018-07-17T14:35:40.856Z,35.08
2018-07-17T14:38:09.406Z,35.40
2018-07-17T14:40:38.040Z,35.05
2018-07-17T14:43:07.223Z,34.89
2018-07-17T14:45:36.203Z,34.43
2018-07-17T14:48:05.969Z,33.70
2018-07-17T14:50:35.316Z,33.48
2018-07-17T14:53:04.775Z,33.57
2018-07-17T14:55:34.332Z,33.61
2018-07-17T14:58:05.274Z,33.75
2018-07-17T15:00:34.579Z,33.62
2018-07-17T15:03:03.964Z,33.34
2018-07-17T15:05:33.486Z,33.22
2018-07-17T15:08:03.048Z,33.20
2018-07-17T15:10:32.448Z,32.68
2018-07-17T15:13:01.094Z,32.39
2018-07-17T15:15:31.029Z,32.61
2018-07-17T15:17:59.960Z,32.95
2018-07-17T15:20:29.431Z,32.90
2018-07-17T15:22:58.788Z,33.07
2018-07-17T15:25:28.416Z,32.68
2018-07-17T15:27:57.152Z,32.58
2018-07-17T15:30:25.888Z,32.72
2018-07-17T15:32:54.993Z,32.64
2018-07-17T15:35:23.959Z,32.95
2018-07-17T15:37:52.799Z,33.44
2018-07-17T15:40:22.123Z,33.62
2018-07-17T15:42:50.779Z,33.35
2018-07-17T15:45:19.617Z,32.92
2018-07-17T15:47:48.199Z,32.61
2018-07-17T15:50:17.360Z,32.50
2018-07-17T15:52:46.742Z,32.70
2018-07-17T15:55:15.322Z,32.76
2018-07-17T15:57:43.860Z,32.94
2018-07-17T16:00:12.433Z,32.32
2018-07-17T16:02:40.976Z,32.29
2018-07-17T16:05:09.751Z,32.38
2018-07-17T16:07:38.292Z,32.34
2018-07-17T16:10:07.030Z,32.31
2018-07-17T16:12:35.638Z,32.23
2018-07-17T16:15:04.383Z,32.27
2018-07-17T16:17:33.117Z,32.37
2018-07-17T16:20:01.663Z,32.17
2018-07-17T16:22:30.252Z,32.07
2018-07-17T16:24:58.873Z,32.00
2018-07-17T16:27:27.427Z,31.83
2018-07-17T16:29:56.066Z,31.79
2018-07-17T16:32:24.646Z,31.83
2018-07-17T16:34:53.204Z,31.78
2018-07-17T16:37:21.837Z,31.82
2018-07-17T16:39:50.421Z,31.91
2018-07-17T16:42:19.405Z,31.96
2018-07-17T16:44:48.036Z,32.06
2018-07-17T16:47:16.575Z,32.11
2018-07-17T16:49:45.146Z,32.02
2018-07-17T16:52:13.688Z,31.99
2018-07-17T16:54:42.272Z,32.09
2018-07-17T16:57:11.071Z,31.99
2018-07-17T16:59:39.602Z,31.70
2018-07-17T17:02:08.183Z,31.72
2018-07-17T17:04:36.708Z,31.77
2018-07-17T17:07:05.431Z,31.64
2018-07-17T17:09:34.017Z,31.27
2018-07-17T17:12:02.527Z,31.46
2018-07-17T17:14:31.136Z,31.36
2018-07-17T17:16:59.682Z,31.10
2018-07-17T17:19:28.296Z,31.14
2018-07-17T17:21:57.115Z,31.30
2018-07-17T17:24:25.693Z,31.21
2018-07-17T17:26:55.200Z,30.82
2018-07-17T17:29:23.794Z,30.93
2018-07-17T17:31:52.326Z,31.03
2018-07-17T17:34:20.863Z,31.06
2018-07-17T17:36:49.519Z,30.80
2018-07-17T17:39:18.104Z,30.95
2018-07-17T17:41:46.676Z,30.77
2018-07-17T17:44:15.363Z,30.81
2018-07-17T17:46:43.917Z,30.79
2018-07-17T17:49:12.720Z,30.51
2018-07-17T17:51:41.301Z,30.51
2018-07-17T17:54:09.879Z,30.36
2018-07-17T17:56:38.468Z,30.23
2018-07-17T17:59:06.996Z,30.17
2018-07-17T18:01:35.572Z,30.02
2018-07-17T18:04:04.448Z,29.96
2018-07-17T18:06:32.991Z,29.86
2018-07-17T18:09:01.976Z,29.49
2018-07-17T18:11:30.528Z,29.39
2018-07-17T18:13:59.040Z,29.40
2018-07-17T18:16:27.924Z,29.36
2018-07-17T18:18:56.446Z,29.20
2018-07-17T18:21:25.052Z,29.21
2018-07-17T18:23:53.583Z,29.03
2018-07-17T18:26:22.264Z,28.94
2018-07-17T18:28:50.844Z,28.81
2018-07-17T18:31:19.384Z,28.69
2018-07-17T18:33:48.120Z,28.59
2018-07-17T18:36:16.696Z,28.22
2018-07-17T18:38:45.213Z,27.76
2018-07-17T18:41:13.827Z,27.33
2018-07-17T18:43:42.391Z,26.98
2018-07-17T18:46:11.324Z,26.74
2018-07-17T18:48:44.045Z,26.62
2018-07-17T18:51:12.710Z,26.33
2018-07-17T18:53:41.326Z,26.23
2018-07-17T18:56:10.058Z,25.70
2018-07-17T18:58:38.671Z,25.58
2018-07-17T19:01:07.224Z,25.30
2018-07-17T19:03:36.028Z,25.01
2018-07-17T19:06:04.691Z,24.76
2018-07-17T19:08:33.182Z,24.51
2018-07-17T19:11:01.884Z,24.31
2018-07-17T19:13:30.748Z,24.26
2018-07-17T19:15:59.470Z,24.29
2018-07-17T19:18:28.028Z,24.17
2018-07-17T19:20:56.684Z,24.03
2018-07-17T19:23:25.505Z,24.00
2018-07-17T19:25:54.368Z,24.21
2018-07-17T19:28:23.171Z,23.83
2018-07-17T19:30:51.772Z,23.59
2018-07-17T19:33:20.320Z,23.64
2018-07-17T19:35:48.920Z,23.56
2018-07-17T19:38:17.519Z,23.43
2018-07-17T19:40:46.159Z,23.50
2018-07-17T19:43:14.784Z,23.58
2018-07-17T19:45:43.327Z,23.52
2018-07-17T19:48:11.943Z,23.47
2018-07-17T19:50:40.500Z,23.43
2018-07-17T19:53:09.089Z,23.38
2018-07-17T19:55:37.691Z,23.41
2018-07-17T19:58:06.320Z,23.33
2018-07-17T20:00:34.884Z,23.41
2018-07-17T20:03:03.469Z,23.44
2018-07-17T20:05:32.077Z,23.20
2018-07-17T20:08:00.614Z,23.07
2018-07-17T20:10:29.196Z,23.16
2018-07-17T20:12:57.773Z,23.12
2018-07-17T20:15:26.303Z,23.07
2018-07-17T20:17:55.091Z,23.23
2018-07-17T20:20:23.951Z,23.20
2018-07-17T20:22:52.496Z,23.13
2018-07-17T20:25:21.076Z,23.15
2018-07-17T20:27:49.602Z,23.08
2018-07-17T20:30:18.151Z,23.00
2018-07-17T20:32:46.709Z,23.11
2018-07-17T20:35:15.285Z,23.01
2018-07-17T20:37:43.876Z,22.88
2018-07-17T20:40:12.436Z,22.86
2018-07-17T20:42:41.064Z,22.66
2018-07-17T20:45:09.587Z,22.59
2018-07-17T20:47:38.140Z,22.70
2018-07-17T20:50:07.135Z,22.84
2018-07-17T20:52:35.731Z,22.61
2018-07-17T20:55:04.663Z,22.48
2018-07-17T20:57:33.196Z,22.64
2018-07-17T21:00:01.734Z,22.64
2018-07-17T21:02:30.304Z,22.51
2018-07-17T21:04:58.841Z,22.43
2018-07-17T21:07:27.438Z,22.53
2018-07-17T21:09:55.971Z,22.63
2018-07-17T21:12:24.512Z,22.45
2018-07-17T21:14:53.080Z,22.50
2018-07-17T21:17:21.620Z,22.63
2018-07-17T21:19:50.532Z,22.69
2018-07-17T21:22:19.311Z,22.56
2018-07-17T21:24:47.964Z,22.38
2018-07-17T21:27:16.516Z,22.31
2018-07-17T21:29:45.048Z,22.06
2018-07-17T21:32:13.740Z,22.31
2018-07-17T21:34:42.643Z,22.19
2018-07-17T21:37:11.184Z,22.39
2018-07-17T21:39:41.449Z,22.68
2018-07-17T21:42:10.314Z,22.84
2018-07-17T21:44:39.663Z,23.06
2018-07-17T21:47:08.211Z,22.81
2018-07-17T21:49:36.777Z,22.95
2018-07-17T21:52:05.335Z,23.01
2018-07-17T21:54:33.928Z,22.93
2018-07-17T21:57:02.635Z,22.75
2018-07-17T21:59:31.171Z,22.82
2018-07-17T22:01:59.840Z,22.67
2018-07-17T22:04:28.514Z,22.53
2018-07-17T22:06:57.068Z,22.79
2018-07-17T22:09:25.644Z,22.66
2018-07-17T22:11:54.691Z,22.85
2018-07-17T22:14:23.596Z,23.08
2018-07-17T22:16:52.160Z,22.78
2018-07-17T22:19:20.684Z,22.26
2018-07-17T22:21:49.375Z,22.48
2018-07-17T22:24:17.903Z,22.53
2018-07-17T22:26:46.717Z,22.10
2018-07-17T22:29:15.284Z,21.92
2018-07-17T22:31:43.802Z,22.11
2018-07-17T22:34:12.656Z,21.66
2018-07-17T22:36:41.724Z,21.43
2018-07-17T22:39:10.735Z,21.27
2018-07-17T22:41:39.543Z,20.97
2018-07-17T22:44:08.111Z,20.75
2018-07-17T22:46:36.668Z,20.84
2018-07-17T22:49:05.521Z,20.63
2018-07-17T22:51:34.048Z,20.55
2018-07-17T22:54:02.625Z,20.27
2018-07-17T22:56:31.269Z,20.31
2018-07-17T22:58:59.848Z,20.26
2018-07-17T23:01:28.432Z,20.16
2018-07-17T23:03:57.448Z,20.20
2018-07-17T23:06:26.544Z,20.25
2018-07-17T23:08:55.084Z,20.17
2018-07-17T23:11:23.996Z,20.41
2018-07-17T23:13:52.552Z,20.39
2018-07-17T23:16:21.127Z,20.59
2018-07-17T23:18:49.796Z,20.69
2018-07-17T23:21:18.340Z,20.67
2018-07-17T23:23:47.315Z,20.66
2018-07-17T23:26:15.863Z,20.67
2018-07-17T23:28:44.428Z,20.50
2018-07-17T23:31:13.408Z,20.44
2018-07-17T23:33:42.110Z,20.21
2018-07-17T23:36:10.698Z,20.41
2018-07-17T23:38:39.418Z,20.37
2018-07-17T23:41:08.095Z,20.06
2018-07-17T23:43:37.000Z,19.93
2018-07-17T23:46:05.580Z,19.64
2018-07-17T23:48:34.176Z,19.65
2018-07-17T23:51:02.761Z,19.80
2018-07-17T23:53:31.464Z,20.17
2018-07-17T23:56:00.175Z,20.07
2018-07-17T23:58:29.269Z,20.07
